createdAt,value
2023-01-11T00:00:47.282Z,87.9
2023-01-11T00:01:47.285Z,87.9
2023-01-11T00:02:47.290Z,87.8
2023-01-11T00:03:47.313Z,87.8
2023-01-11T00:04:47.636Z,87.8
2023-01-11T00:05:47.340Z,87.8
2023-01-11T00:06:47.592Z,87.8
2023-01-11T00:07:47.353Z,87.8
2023-01-11T00:08:47.375Z,87.8
2023-01-11T00:09:47.371Z,87.8
2023-01-11T00:10:47.361Z,87.8
2023-01-11T00:11:47.377Z,87.8
2023-01-11T00:12:47.381Z,87.8
2023-01-11T00:13:47.410Z,87.7
2023-01-11T00:14:47.401Z,87.7
2023-01-11T00:15:47.542Z,87.7
2023-01-11T00:16:47.421Z,87.7
2023-01-11T00:17:47.431Z,87.7
2023-01-11T00:18:47.446Z,87.8
2023-01-11T00:19:47.462Z,87.8
2023-01-11T00:20:47.481Z,87.8
2023-01-11T00:21:47.479Z,87.7
2023-01-11T00:22:47.492Z,87.6
2023-01-11T00:23:47.497Z,87.6
2023-01-11T00:24:47.545Z,87.6
2023-01-11T00:25:47.544Z,87.5
2023-01-11T00:26:47.550Z,87.4
2023-01-11T00:27:47.548Z,87.4
2023-01-11T00:28:47.573Z,87.5
2023-01-11T00:29:47.568Z,87.6
2023-01-11T00:30:47.567Z,87.6
2023-01-11T00:31:47.582Z,87.5
2023-01-11T00:32:47.595Z,87.5
2023-01-11T00:33:47.623Z,87.5
2023-01-11T00:34:47.612Z,87.4
2023-01-11T00:35:47.630Z,87.4
2023-01-11T00:36:47.639Z,87.4
2023-01-11T00:37:47.654Z,87.4
2023-01-11T00:38:47.657Z,87.2
2023-01-11T00:39:47.661Z,87.3
2023-01-11T00:40:47.675Z,87.3
2023-01-11T00:41:48.058Z,87.2
2023-01-11T00:42:47.693Z,87.2
2023-01-11T00:43:47.688Z,87.3
2023-01-11T00:44:47.734Z,87.4
2023-01-11T00:45:47.826Z,87.5
2023-01-11T00:46:47.740Z,87.7
2023-01-11T00:47:47.752Z,87.8
2023-01-11T00:48:47.758Z,87.9
2023-01-11T00:49:47.762Z,88.1
2023-01-11T00:50:47.777Z,88.2
2023-01-11T00:51:47.786Z,88.3
2023-01-11T00:52:47.777Z,88.1
2023-01-11T00:53:47.795Z,88.0
2023-01-11T00:54:47.813Z,88.1
2023-01-11T00:55:47.828Z,88.1
2023-01-11T00:56:47.833Z,88.4
2023-01-11T00:57:47.839Z,88.5
2023-01-11T00:58:47.843Z,88.6
2023-01-11T00:59:47.863Z,88.5
2023-01-11T01:00:47.871Z,88.6
2023-01-11T01:01:47.871Z,88.6
2023-01-11T01:02:48.133Z,88.5
2023-01-11T01:03:47.899Z,88.6
2023-01-11T01:04:47.917Z,88.6
2023-01-11T01:05:47.915Z,88.7
2023-01-11T01:06:48.252Z,88.7
2023-01-11T01:07:47.946Z,88.7
2023-01-11T01:08:47.941Z,88.8
2023-01-11T01:09:47.955Z,88.8
2023-01-11T01:10:47.984Z,88.9
2023-01-11T01:11:47.982Z,88.9
2023-01-11T01:12:47.994Z,88.8
2023-01-11T01:13:47.995Z,88.8
2023-01-11T01:14:48.208Z,88.8
2023-01-11T01:15:48.161Z,88.8
2023-01-11T01:16:48.050Z,88.9
2023-01-11T01:17:48.064Z,88.9
2023-01-11T01:18:48.087Z,88.9
2023-01-11T01:19:48.087Z,88.9
2023-01-11T01:20:48.089Z,89.0
2023-01-11T01:21:48.101Z,88.9
2023-01-11T01:22:48.091Z,88.9
2023-01-11T01:23:48.095Z,88.9
2023-01-11T01:24:48.276Z,88.9
2023-01-11T01:25:48.111Z,88.8
2023-01-11T01:26:48.138Z,88.8
2023-01-11T01:27:48.151Z,88.9
2023-01-11T01:28:48.141Z,89.0
2023-01-11T01:29:48.148Z,89.1
2023-01-11T01:30:48.164Z,89.1
2023-01-11T01:31:48.185Z,89.3
2023-01-11T01:32:48.195Z,89.4
2023-01-11T01:33:48.197Z,89.4
2023-01-11T01:34:48.506Z,89.5
2023-01-11T01:35:48.223Z,89.5
2023-01-11T01:36:48.235Z,89.4
2023-01-11T01:37:48.228Z,89.5
2023-01-11T01:38:48.226Z,89.4
2023-01-11T01:39:48.248Z,89.3
2023-01-11T01:40:48.269Z,89.3
2023-01-11T01:41:48.264Z,89.3
2023-01-11T01:59:48.806Z,89.4
2023-01-11T02:00:48.484Z,89.4
2023-01-11T02:01:48.829Z,89.4
2023-01-11T02:02:48.645Z,89.4
2023-01-11T02:03:48.518Z,89.4
2023-01-11T02:04:48.534Z,89.5
2023-01-11T02:05:48.565Z,89.5
2023-01-11T02:06:48.882Z,89.5
2023-01-11T02:07:48.539Z,89.5
2023-01-11T02:08:48.552Z,89.5
2023-01-11T02:09:48.619Z,89.5
2023-01-11T02:10:48.599Z,89.4
2023-01-11T02:11:48.601Z,89.3
2023-01-11T02:12:48.617Z,89.3
2023-01-11T02:13:48.637Z,89.3
2023-01-11T02:14:48.625Z,89.3
2023-01-11T02:15:48.764Z,89.2
2023-01-11T02:16:48.624Z,89.2
2023-01-11T02:17:48.645Z,89.3
2023-01-11T02:18:48.653Z,89.3
2023-01-11T02:19:48.674Z,89.3
2023-01-11T02:20:48.650Z,89.3
2023-01-11T02:21:48.668Z,89.3
2023-01-11T02:22:48.679Z,89.3
2023-01-11T02:23:48.695Z,89.3
2023-01-11T02:24:48.703Z,89.3
2023-01-11T02:25:48.737Z,89.4
2023-01-11T02:26:48.749Z,89.4
2023-01-11T02:27:48.750Z,89.5
2023-01-11T02:28:48.753Z,89.5
2023-01-11T02:29:48.790Z,89.5
2023-01-11T02:30:48.772Z,89.4
2023-01-11T02:31:48.804Z,89.4
2023-01-11T02:32:48.817Z,89.3
2023-01-11T02:33:48.810Z,89.4
2023-01-11T02:34:48.816Z,89.4
2023-01-11T02:35:48.827Z,89.4
2023-01-11T02:36:48.849Z,89.4
2023-01-11T02:37:48.855Z,89.4
2023-01-11T02:38:48.867Z,89.5
2023-01-11T02:39:48.895Z,89.5
2023-01-11T02:40:48.897Z,89.6
2023-01-11T02:41:48.937Z,89.6
2023-01-11T02:42:48.947Z,89.7
2023-01-11T02:43:48.920Z,89.7
2023-01-11T02:44:48.931Z,89.8
2023-01-11T02:45:48.950Z,89.8
2023-01-11T02:46:49.172Z,89.8
2023-01-11T02:47:48.983Z,89.8
2023-01-11T02:48:49.001Z,89.8
2023-01-11T02:49:48.981Z,89.8
2023-01-11T02:50:48.975Z,89.7
2023-01-11T02:51:48.992Z,89.7
2023-01-11T02:52:49.003Z,89.7
2023-01-11T02:53:49.012Z,89.6
2023-01-11T02:54:49.047Z,89.7
2023-01-11T02:55:49.032Z,89.6
2023-01-11T02:56:49.042Z,89.6
2023-01-11T02:57:49.050Z,89.7
2023-01-11T02:58:49.091Z,89.7
2023-01-11T02:59:49.091Z,89.7
2023-01-11T03:00:49.084Z,89.6
2023-01-11T03:01:49.293Z,89.5
2023-01-11T03:02:49.247Z,89.6
2023-01-11T03:03:49.144Z,89.6
2023-01-11T03:04:49.150Z,89.5
2023-01-11T03:05:49.178Z,89.5
2023-01-11T03:06:49.344Z,89.5
2023-01-11T03:07:49.188Z,89.5
2023-01-11T03:08:49.200Z,89.5
2023-01-11T03:09:49.233Z,89.4
2023-01-11T03:10:49.227Z,89.4
2023-01-11T03:11:49.227Z,89.4
2023-01-11T03:12:49.242Z,89.3
2023-01-11T03:13:49.248Z,89.3
2023-01-11T03:14:49.258Z,89.3
2023-01-11T03:15:49.389Z,89.3
2023-01-11T03:16:49.281Z,89.3
2023-01-11T03:17:49.301Z,89.3
2023-01-11T03:18:49.314Z,89.3
2023-01-11T03:19:49.333Z,89.2
2023-01-11T03:20:49.365Z,89.2
2023-01-11T03:21:49.346Z,89.2
2023-01-11T03:22:49.366Z,89.2
2023-01-11T03:23:49.386Z,89.2
2023-01-11T03:24:49.371Z,89.1
2023-01-11T03:25:49.400Z,89.1
2023-01-11T03:26:49.429Z,89.2
2023-01-11T03:27:49.421Z,89.2
2023-01-11T03:28:49.438Z,89.2
2023-01-11T03:29:49.487Z,89.2
2023-01-11T03:30:49.455Z,89.3
2023-01-11T03:31:49.468Z,89.3
2023-01-11T03:32:49.492Z,89.3
2023-01-11T03:33:49.509Z,89.3
2023-01-11T03:34:49.505Z,89.3
2023-01-11T03:35:49.503Z,89.3
2023-01-11T03:36:49.503Z,89.3
2023-01-11T03:37:49.527Z,89.4
2023-01-11T03:38:49.562Z,89.5
2023-01-11T03:39:49.535Z,89.5
2023-01-11T03:40:49.567Z,89.5
2023-01-11T03:41:49.575Z,89.5
2023-01-11T03:42:49.579Z,89.5
2023-01-11T03:43:49.596Z,89.5
2023-01-11T03:44:49.592Z,89.5
2023-01-11T03:45:49.619Z,89.5
2023-01-11T03:46:49.790Z,89.5
2023-01-11T03:47:49.623Z,89.5
2023-01-11T03:48:49.644Z,89.5
2023-01-11T03:49:49.656Z,89.5
2023-01-11T03:50:49.697Z,89.5
2023-01-11T03:51:49.677Z,89.6
2023-01-11T03:52:49.676Z,89.7
2023-01-11T03:53:49.706Z,89.8
2023-01-11T03:54:49.716Z,89.8
2023-01-11T03:55:49.708Z,89.8
2023-01-11T03:56:49.727Z,89.9
2023-01-11T03:57:49.728Z,89.9
2023-01-11T03:58:49.748Z,90.0
2023-01-11T03:59:49.783Z,90.0
2023-01-11T04:00:49.958Z,90.0
2023-01-11T04:01:49.790Z,90.1
2023-01-11T04:02:49.806Z,90.0
2023-01-11T04:03:49.802Z,90.0
2023-01-11T04:04:49.837Z,90.1
2023-01-11T04:05:49.827Z,90.0
2023-01-11T04:06:50.092Z,90.1
2023-01-11T04:07:50.088Z,90.1
2023-01-11T04:08:49.874Z,90.0
2023-01-11T04:09:49.920Z,90.0
2023-01-11T04:10:49.900Z,90.0
2023-01-11T04:11:49.940Z,90.0
2023-01-11T04:12:49.927Z,90.0
2023-01-11T04:13:49.955Z,90.0
2023-01-11T04:14:49.970Z,90.0
2023-01-11T04:15:49.977Z,90.0
2023-01-11T04:16:49.985Z,89.9
2023-01-11T04:17:50.005Z,89.9
2023-01-11T04:18:49.997Z,89.9
2023-01-11T04:19:50.016Z,89.9
2023-01-11T04:20:50.036Z,90.0
2023-01-11T04:21:50.038Z,90.0
2023-01-11T04:22:50.046Z,90.0
2023-01-11T04:23:50.080Z,90.0
2023-01-11T04:24:50.070Z,90.0
2023-01-11T04:25:50.082Z,90.1
2023-01-11T04:26:50.111Z,90.1
2023-01-11T04:27:50.108Z,90.2
2023-01-11T04:28:54.576Z,90.1
2023-01-11T04:29:50.136Z,90.2
2023-01-11T04:30:50.136Z,90.2
2023-01-11T04:31:50.389Z,90.2
2023-01-11T04:32:50.153Z,90.2
2023-01-11T04:33:50.167Z,90.2
2023-01-11T04:34:50.188Z,90.2
2023-01-11T04:35:50.220Z,90.2
2023-01-11T04:36:50.191Z,90.3
2023-01-11T04:37:50.200Z,90.3
2023-01-11T04:38:50.217Z,90.4
2023-01-11T04:39:50.270Z,90.4
2023-01-11T04:40:50.243Z,90.4
2023-01-11T04:41:50.276Z,90.4
2023-01-11T04:42:50.263Z,90.4
2023-01-11T04:43:50.276Z,90.5
2023-01-11T04:44:50.352Z,90.5
2023-01-11T04:45:50.412Z,90.5
2023-01-11T04:46:50.330Z,90.6
2023-01-11T04:47:50.309Z,90.5
2023-01-11T04:48:50.331Z,90.5
2023-01-11T04:49:50.340Z,90.6
2023-01-11T04:50:50.353Z,90.6
2023-01-11T04:51:50.384Z,90.6
2023-01-11T04:52:50.379Z,90.7
2023-01-11T04:53:50.389Z,90.6
2023-01-11T04:54:50.403Z,90.6
2023-01-11T04:55:50.425Z,90.7
2023-01-11T04:56:50.428Z,90.7
2023-01-11T04:57:50.457Z,90.7
2023-01-11T04:58:50.454Z,90.7
2023-01-11T04:59:50.465Z,90.6
2023-01-11T05:00:50.559Z,90.6
2023-01-11T05:01:50.468Z,90.6
2023-01-11T05:02:50.472Z,90.6
2023-01-11T05:03:50.594Z,90.5
2023-01-11T05:04:50.525Z,90.5
2023-01-11T05:05:50.493Z,90.5
2023-01-11T05:06:50.751Z,90.6
2023-01-11T05:07:50.532Z,90.6
2023-01-11T05:08:50.546Z,90.6
2023-01-11T05:09:50.565Z,90.6
2023-01-11T05:10:50.578Z,90.6
2023-01-11T05:11:50.595Z,90.6
2023-01-11T05:12:50.593Z,90.5
2023-01-11T05:13:50.616Z,90.5
2023-01-11T05:14:50.822Z,90.6
2023-01-11T05:15:50.638Z,90.6
2023-01-11T05:16:50.848Z,90.6
2023-01-11T05:17:50.660Z,90.6
2023-01-11T05:18:50.676Z,90.6
2023-01-11T05:19:50.684Z,90.6
2023-01-11T05:20:50.688Z,90.6
2023-01-11T05:21:50.706Z,90.6
2023-01-11T05:22:50.716Z,90.6
2023-01-11T05:23:50.718Z,90.7
2023-01-11T05:24:50.731Z,90.7
2023-01-11T05:25:50.766Z,90.7
2023-01-11T05:26:50.773Z,90.7
2023-01-11T05:27:50.773Z,90.7
2023-01-11T05:28:50.845Z,90.7
2023-01-11T05:29:50.794Z,90.7
2023-01-11T05:30:50.826Z,90.8
2023-01-11T05:31:50.996Z,90.9
2023-01-11T05:32:50.837Z,91.0
2023-01-11T05:33:50.837Z,91.0
2023-01-11T05:34:50.883Z,91.0
2023-01-11T05:35:51.131Z,91.0
2023-01-11T05:36:50.901Z,91.0
2023-01-11T05:37:50.909Z,91.0
2023-01-11T05:38:50.955Z,91.0
2023-01-11T05:39:50.944Z,91.0
2023-01-11T05:40:50.928Z,91.1
2023-01-11T05:41:51.063Z,91.1
2023-01-11T05:42:50.979Z,91.1
2023-01-11T05:43:50.983Z,91.2
2023-01-11T05:44:51.008Z,91.3
2023-01-11T05:45:51.340Z,91.4
2023-01-11T05:46:51.020Z,91.4
2023-01-11T05:47:51.036Z,91.4
2023-01-11T05:48:51.059Z,91.4
2023-01-11T05:49:51.091Z,91.4
2023-01-11T05:50:51.087Z,91.4
2023-01-11T05:51:51.143Z,91.4
2023-01-11T05:52:51.105Z,91.4
2023-01-11T05:53:51.124Z,91.4
2023-01-11T05:54:51.147Z,91.4
2023-01-11T05:55:51.176Z,91.4
2023-01-11T05:56:51.162Z,91.4
2023-01-11T05:57:51.199Z,91.3
2023-01-11T05:58:51.216Z,91.4
2023-01-11T05:59:51.173Z,91.3
2023-01-11T06:00:51.215Z,91.3
2023-01-11T06:01:51.524Z,91.3
2023-01-11T06:02:51.903Z,91.3
2023-01-11T06:03:51.247Z,91.3
2023-01-11T06:04:51.197Z,91.3
2023-01-11T06:05:51.291Z,91.3
2023-01-11T06:06:51.568Z,91.3
2023-01-11T06:07:51.281Z,91.3
2023-01-11T06:08:51.316Z,91.3
2023-01-11T06:09:51.342Z,91.2
2023-01-11T06:10:51.328Z,91.2
2023-01-11T06:11:51.332Z,91.2
2023-01-11T06:12:51.326Z,91.2
2023-01-11T06:13:51.334Z,91.2
2023-01-11T06:14:51.349Z,91.2
2023-01-11T06:15:51.340Z,91.2
2023-01-11T06:16:51.428Z,91.2
2023-01-11T06:17:51.349Z,91.2
2023-01-11T06:18:51.405Z,91.2
2023-01-11T06:19:51.363Z,91.3
2023-01-11T06:20:51.506Z,91.2
2023-01-11T06:21:51.367Z,91.3
2023-01-11T06:22:51.383Z,91.3
2023-01-11T06:23:51.413Z,91.3
2023-01-11T06:24:51.419Z,91.3
2023-01-11T06:25:51.456Z,91.3
2023-01-11T06:26:51.458Z,91.4
2023-01-11T06:27:51.456Z,91.4
2023-01-11T06:28:51.473Z,91.4
2023-01-11T06:29:51.454Z,91.4
2023-01-11T06:30:51.669Z,91.3
2023-01-11T06:31:51.486Z,91.3
2023-01-11T06:32:51.510Z,91.4
2023-01-11T06:33:51.529Z,91.4
2023-01-11T06:34:51.546Z,91.3
2023-01-11T06:35:51.560Z,91.3
2023-01-11T06:36:51.546Z,91.4
2023-01-11T06:37:51.545Z,91.5
2023-01-11T06:38:51.564Z,91.4
2023-01-11T06:39:51.569Z,91.4
2023-01-11T06:40:51.565Z,91.4
2023-01-11T06:41:51.608Z,91.4
2023-01-11T06:42:51.616Z,91.4
2023-01-11T06:43:51.731Z,91.3
2023-01-11T06:44:51.630Z,91.3
2023-01-11T06:45:51.936Z,91.3
2023-01-11T06:46:51.639Z,91.3
2023-01-11T06:47:51.647Z,91.3
2023-01-11T06:48:51.666Z,91.4
2023-01-11T06:49:51.659Z,91.4
2023-01-11T06:50:51.684Z,91.4
2023-01-11T06:51:51.714Z,91.5
2023-01-11T06:52:51.703Z,91.4
2023-01-11T06:53:51.731Z,91.5
2023-01-11T06:54:51.721Z,91.5
2023-01-11T06:55:51.750Z,91.5
2023-01-11T06:56:51.747Z,91.5
2023-01-11T06:57:51.763Z,91.5
2023-01-11T06:58:51.787Z,91.5
2023-01-11T06:59:51.787Z,91.4
2023-01-11T07:00:52.322Z,91.4
2023-01-11T07:01:51.844Z,91.3
2023-01-11T07:02:51.845Z,91.3
2023-01-11T07:03:51.862Z,91.3
2023-01-11T07:04:52.068Z,91.3
2023-01-11T07:05:51.870Z,91.4
2023-01-11T07:06:51.909Z,91.5
2023-01-11T07:07:51.934Z,91.5
2023-01-11T07:08:51.907Z,91.5
2023-01-11T07:09:51.951Z,91.6
2023-01-11T07:10:51.948Z,91.6
2023-01-11T07:11:51.936Z,91.7
2023-01-11T07:12:51.972Z,91.8
2023-01-11T07:13:51.967Z,92.0
2023-01-11T07:14:51.979Z,92.0
2023-01-11T07:15:52.226Z,92.0
2023-01-11T07:16:52.039Z,92.1
2023-01-11T07:17:52.029Z,92.1
2023-01-11T07:18:52.057Z,92.1
2023-01-11T07:19:52.050Z,92.1
2023-01-11T07:20:52.101Z,92.1
2023-01-11T07:21:52.100Z,92.1
2023-01-11T07:22:52.097Z,92.2
2023-01-11T07:23:52.123Z,92.2
2023-01-11T07:24:52.134Z,92.2
2023-01-11T07:25:52.367Z,92.2
2023-01-11T07:26:52.166Z,92.3
2023-01-11T07:27:52.178Z,92.3
2023-01-11T07:28:52.174Z,92.3
2023-01-11T07:29:52.176Z,92.2
2023-01-11T07:31:00.474Z,92.2
2023-01-11T07:31:52.231Z,92.2
2023-01-11T07:32:52.245Z,92.1
2023-01-11T07:33:52.249Z,92.1
2023-01-11T07:34:52.281Z,92.1
2023-01-11T07:35:52.265Z,92.1
2023-01-11T07:36:52.269Z,92.2
2023-01-11T07:37:52.272Z,92.2
2023-01-11T07:38:52.288Z,92.2
2023-01-11T07:39:52.309Z,92.2
2023-01-11T07:40:52.359Z,92.3
2023-01-11T07:41:52.324Z,92.2
2023-01-11T07:42:52.352Z,92.2
2023-01-11T07:43:52.342Z,92.2
2023-01-11T07:44:52.361Z,92.2
2023-01-11T07:45:53.219Z,92.2
2023-01-11T07:46:52.932Z,92.2
2023-01-11T07:47:52.420Z,92.2
2023-01-11T07:48:52.436Z,92.2
2023-01-11T07:49:52.437Z,92.2
2023-01-11T07:50:52.462Z,92.1
2023-01-11T07:51:52.449Z,92.1
2023-01-11T07:52:52.497Z,92.1
2023-01-11T07:53:52.491Z,92.1
2023-01-11T07:54:52.526Z,92.2
2023-01-11T07:55:52.520Z,92.2
2023-01-11T07:56:52.554Z,92.2
2023-01-11T07:57:52.546Z,92.3
2023-01-11T07:58:52.608Z,92.3
2023-01-11T07:59:52.604Z,92.4
2023-01-11T08:00:52.639Z,92.4
2023-01-11T08:01:52.605Z,92.4
2023-01-11T08:02:53.033Z,92.4
2023-01-11T08:03:52.906Z,92.4
2023-01-11T08:04:52.651Z,92.4
2023-01-11T08:05:52.985Z,92.4
2023-01-11T08:06:52.671Z,92.5
2023-01-11T08:07:52.689Z,92.5
2023-01-11T08:08:52.691Z,92.5
2023-01-11T08:09:52.712Z,92.5
2023-01-11T08:10:53.163Z,92.5
2023-01-11T08:11:52.756Z,92.6
2023-01-11T08:12:52.772Z,92.5
2023-01-11T08:13:52.762Z,92.5
2023-01-11T08:14:52.777Z,92.6
2023-01-11T08:15:52.889Z,92.6
2023-01-11T08:16:52.808Z,92.6
2023-01-11T08:17:52.812Z,92.7
2023-01-11T08:18:52.837Z,92.7
2023-01-11T08:19:52.832Z,92.8
2023-01-11T08:20:52.891Z,92.8
2023-01-11T08:21:52.865Z,92.9
2023-01-11T08:22:53.022Z,92.9
2023-01-11T08:23:52.894Z,92.9
2023-01-11T08:24:53.002Z,92.9
2023-01-11T08:25:52.891Z,92.9
2023-01-11T08:26:53.057Z,92.9
2023-01-11T08:27:52.925Z,92.8
2023-01-11T08:28:52.981Z,92.8
2023-01-11T08:29:52.947Z,92.8
2023-01-11T08:30:53.034Z,92.8
2023-01-11T08:31:52.952Z,92.8
2023-01-11T08:32:52.964Z,92.8
2023-01-11T08:33:53.008Z,92.9
2023-01-11T08:34:52.997Z,92.9
2023-01-11T08:35:53.008Z,92.9
2023-01-11T08:36:53.010Z,92.9
2023-01-11T08:37:53.006Z,92.9
2023-01-11T08:38:53.029Z,92.9
2023-01-11T08:39:53.053Z,92.8
2023-01-11T08:40:53.056Z,92.7
2023-01-11T08:41:53.069Z,92.6
2023-01-11T08:42:53.072Z,92.6
2023-01-11T08:43:53.075Z,92.5
2023-01-11T08:44:53.075Z,92.4
2023-01-11T08:45:53.140Z,92.4
2023-01-11T08:46:53.165Z,92.3
2023-01-11T08:47:53.186Z,92.3
2023-01-11T08:48:53.144Z,92.3
2023-01-11T08:49:53.158Z,92.2
2023-01-11T08:50:53.181Z,92.1
2023-01-11T08:51:53.224Z,92.0
2023-01-11T08:52:53.214Z,91.9
2023-01-11T08:53:53.226Z,91.8
2023-01-11T08:54:53.233Z,91.7
2023-01-11T08:55:53.234Z,91.6
2023-01-11T08:56:53.260Z,91.6
2023-01-11T08:57:53.258Z,91.5
2023-01-11T08:58:53.310Z,91.5
2023-01-11T08:59:53.253Z,91.4
2023-01-11T09:00:53.259Z,91.3
2023-01-11T09:01:53.790Z,91.2
2023-01-11T09:02:53.592Z,91.0
2023-01-11T09:03:53.408Z,90.8
2023-01-11T09:04:53.348Z,90.5
2023-01-11T09:05:53.324Z,90.2
2023-01-11T09:06:53.363Z,90.2
2023-01-11T09:07:53.343Z,90.1
2023-01-11T09:08:53.365Z,90.1
2023-01-11T09:09:53.366Z,90.0
2023-01-11T09:10:53.378Z,90.1
2023-01-11T09:11:53.388Z,90.0
2023-01-11T09:12:53.401Z,89.9
2023-01-11T09:13:53.422Z,89.8
2023-01-11T09:14:53.429Z,89.6
2023-01-11T09:15:53.505Z,89.4
2023-01-11T09:16:53.518Z,89.4
2023-01-11T09:17:53.476Z,89.4
2023-01-11T09:18:53.476Z,89.3
2023-01-11T09:19:53.529Z,89.2
2023-01-11T09:20:53.514Z,89.3
2023-01-11T09:21:53.651Z,89.3
2023-01-11T09:22:53.542Z,89.4
2023-01-11T09:23:53.547Z,89.4
2023-01-11T09:24:53.571Z,89.4
2023-01-11T09:25:53.555Z,89.2
2023-01-11T09:26:53.667Z,89.2
2023-01-11T09:27:53.576Z,89.2
2023-01-11T09:28:53.808Z,89.2
2023-01-11T09:29:53.590Z,89.2
2023-01-11T09:30:53.837Z,89.1
2023-01-11T09:31:53.664Z,89.1
2023-01-11T09:32:53.631Z,89.1
2023-01-11T09:33:53.657Z,89.0
2023-01-11T09:34:53.695Z,89.1
2023-01-11T09:35:53.671Z,89.0
2023-01-11T09:36:53.690Z,89.0
2023-01-11T09:37:53.698Z,89.0
2023-01-11T09:38:53.695Z,89.0
2023-01-11T09:39:53.752Z,88.8
2023-01-11T09:40:53.715Z,88.8
2023-01-11T09:41:53.742Z,88.7
2023-01-11T09:42:53.776Z,88.6
2023-01-11T09:43:53.757Z,88.6
2023-01-11T09:44:53.780Z,88.7
2023-01-11T09:45:53.794Z,88.8
2023-01-11T09:46:54.078Z,88.7
2023-01-11T09:47:53.837Z,88.6
2023-01-11T09:48:53.824Z,88.6
2023-01-11T09:49:53.866Z,88.5
2023-01-11T09:50:53.995Z,88.4
2023-01-11T09:51:53.875Z,88.4
2023-01-11T09:52:53.895Z,88.5
2023-01-11T09:53:53.887Z,88.5
2023-01-11T09:54:53.907Z,88.5
2023-01-11T09:55:53.912Z,88.5
2023-01-11T09:56:53.955Z,88.4
2023-01-11T09:57:54.094Z,88.3
2023-01-11T09:58:53.960Z,88.3
2023-01-11T09:59:53.970Z,88.3
2023-01-11T10:00:54.230Z,88.3
2023-01-11T10:01:53.998Z,88.3
2023-01-11T10:02:54.018Z,88.4
2023-01-11T10:03:54.023Z,88.4
2023-01-11T10:04:54.277Z,88.3
2023-01-11T10:05:54.078Z,88.3
2023-01-11T10:06:54.058Z,88.3
2023-01-11T10:18:21.989Z,88.0
2023-01-11T10:18:24.291Z,87.8
2023-01-11T10:18:34.677Z,87.9
2023-01-11T10:18:34.863Z,87.7
2023-01-11T10:19:54.672Z,87.6
2023-01-11T10:20:54.303Z,87.6
2023-01-11T10:21:54.320Z,87.5
2023-01-11T10:22:54.312Z,87.6
2023-01-11T10:23:54.343Z,87.6
2023-01-11T10:24:54.348Z,87.6
2023-01-11T10:25:54.387Z,87.5
2023-01-11T10:26:54.490Z,87.4
2023-01-11T10:27:54.384Z,87.4
2023-01-11T10:28:54.416Z,87.4
2023-01-11T10:29:54.430Z,87.3
2023-01-11T10:30:54.441Z,87.3
2023-01-11T10:31:54.502Z,87.1
2023-01-11T10:32:54.555Z,87.1
2023-01-11T10:33:54.416Z,86.8
2023-01-11T10:34:54.431Z,86.7
2023-01-11T10:35:54.438Z,86.9
2023-01-11T10:36:54.462Z,87.0
2023-01-11T10:37:54.484Z,87.1
2023-01-11T10:38:54.457Z,87.1
2023-01-11T10:39:54.487Z,87.1
2023-01-11T10:40:54.535Z,87.1
2023-01-11T10:41:54.479Z,87.0
2023-01-11T10:42:54.532Z,86.9
2023-01-11T10:43:54.496Z,86.8
2023-01-11T10:44:54.506Z,86.7
2023-01-11T10:45:54.798Z,86.7
2023-01-11T10:46:54.541Z,86.2
2023-01-11T10:47:54.523Z,86.2
2023-01-11T10:48:54.540Z,86.3
2023-01-11T10:49:54.539Z,86.3
2023-01-11T10:50:54.544Z,86.4
2023-01-11T10:51:54.549Z,86.4
2023-01-11T10:52:54.550Z,86.4
2023-01-11T10:53:54.574Z,86.3
2023-01-11T10:54:54.631Z,86.3
2023-01-11T10:55:54.607Z,86.4
2023-01-11T10:57:07.981Z,86.4
2023-01-11T10:58:03.963Z,86.4
2023-01-11T10:58:54.742Z,86.3
2023-01-11T10:59:54.628Z,86.3
2023-01-11T11:00:55.483Z,86.3
2023-01-11T11:01:54.834Z,86.2
2023-01-11T11:03:10.462Z,86.2
2023-01-11T11:03:54.690Z,86.1
2023-01-11T11:04:54.660Z,86.1
2023-01-11T11:05:54.674Z,86.1
2023-01-11T11:06:54.706Z,86.0
2023-01-11T11:07:54.708Z,85.8
2023-01-11T11:08:54.754Z,85.7
2023-01-11T11:09:54.755Z,85.6
2023-01-11T11:10:54.718Z,85.5
2023-01-11T11:11:54.722Z,85.6
2023-01-11T11:12:54.717Z,85.6
2023-01-11T11:13:54.732Z,85.5
2023-01-11T11:14:54.746Z,85.3
2023-01-11T11:15:55.242Z,85.2
2023-01-11T11:16:54.846Z,85.3
2023-01-11T11:17:54.775Z,85.0
2023-01-11T11:18:54.776Z,85.1
2023-01-11T11:19:54.878Z,85.1
2023-01-11T11:20:54.816Z,85.1
2023-01-11T11:21:54.870Z,85.2
2023-01-11T11:22:54.806Z,85.1
2023-01-11T11:23:54.804Z,85.0
2023-01-11T11:24:54.820Z,85.0
2023-01-11T11:25:54.827Z,84.9
2023-01-11T11:26:55.090Z,84.8
2023-01-11T11:27:54.832Z,84.6
2023-01-11T11:29:02.906Z,84.5
2023-01-11T11:29:54.875Z,84.3
2023-01-11T11:30:54.858Z,84.5
2023-01-11T11:31:55.205Z,84.5
2023-01-11T11:32:54.874Z,84.6
2023-01-11T11:33:55.143Z,84.5
2023-01-11T11:34:54.906Z,84.4
2023-01-11T11:35:54.894Z,84.2
2023-01-11T11:36:54.916Z,84.2
2023-01-11T11:37:54.913Z,84.0
2023-01-11T11:38:55.113Z,83.8
2023-01-11T11:39:54.931Z,83.8
2023-01-11T11:40:54.931Z,83.7
2023-01-11T11:41:54.934Z,83.6
2023-01-11T11:42:54.941Z,83.9
2023-01-11T11:43:54.965Z,83.8
2023-01-11T11:44:54.967Z,83.8
2023-01-11T11:45:55.156Z,84.0
2023-01-11T11:46:54.984Z,83.8
2023-01-11T11:47:55.003Z,83.8
2023-01-11T11:48:55.003Z,83.8
2023-01-11T11:49:55.007Z,83.9
2023-01-11T11:50:55.008Z,83.0
2023-01-11T11:51:55.017Z,82.8
2023-01-11T11:52:55.035Z,83.3
2023-01-11T11:53:55.035Z,83.5
2023-01-11T11:54:55.040Z,83.6
2023-01-11T11:55:55.047Z,83.5
2023-01-11T11:56:55.059Z,83.1
2023-01-11T11:57:55.052Z,83.2
2023-01-11T11:58:55.071Z,83.4
2023-01-11T11:59:55.072Z,83.3
2023-01-11T12:00:55.085Z,83.2
2023-01-11T12:01:55.237Z,83.4
2023-01-11T12:02:55.085Z,83.5
2023-01-11T12:03:55.100Z,83.7
2023-01-11T12:04:55.297Z,83.8
2023-01-11T12:05:55.119Z,83.9
2023-01-11T12:06:55.116Z,83.9
2023-01-11T12:07:56.064Z,83.9
2023-01-11T12:08:55.123Z,84.0
2023-01-11T12:09:55.144Z,83.8
2023-01-11T12:10:55.148Z,84.1
2023-01-11T12:11:55.153Z,84.1
2023-01-11T12:12:55.163Z,84.1
2023-01-11T12:13:55.171Z,84.2
2023-01-11T12:14:55.189Z,84.6
2023-01-11T12:15:55.193Z,84.6
2023-01-11T12:16:55.387Z,84.5
2023-01-11T12:17:55.210Z,84.4
2023-01-11T12:18:55.197Z,84.5
2023-01-11T12:19:55.204Z,84.5
2023-01-11T12:20:55.246Z,84.4
2023-01-11T12:21:55.209Z,84.3
2023-01-11T12:22:55.226Z,84.4
2023-01-11T12:23:55.227Z,84.5
2023-01-11T12:24:55.243Z,84.6
2023-01-11T12:25:55.259Z,84.6
2023-01-11T12:26:55.722Z,84.7
2023-01-11T12:27:55.300Z,84.8
2023-01-11T12:28:55.308Z,84.8
2023-01-11T12:29:55.289Z,84.8
2023-01-11T12:30:55.466Z,84.9
2023-01-11T12:31:55.326Z,84.9
2023-01-11T12:32:55.342Z,84.8
2023-01-11T12:33:55.324Z,84.7
2023-01-11T12:34:55.320Z,84.7
2023-01-11T12:35:55.333Z,84.6
2023-01-11T12:36:55.352Z,84.7
2023-01-11T12:37:55.359Z,84.7
2023-01-11T12:38:55.349Z,84.7
2023-01-11T12:39:55.376Z,84.6
2023-01-11T12:40:55.351Z,84.7
2023-01-11T12:41:55.375Z,84.7
2023-01-11T12:42:55.370Z,84.7
2023-01-11T12:43:55.386Z,84.4
2023-01-11T12:44:55.407Z,84.5
2023-01-11T12:45:55.548Z,84.4
2023-01-11T12:46:55.394Z,84.1
2023-01-11T12:47:55.433Z,84.0
2023-01-11T12:48:55.614Z,84.0
2023-01-11T12:49:56.060Z,83.5
2023-01-11T12:50:55.438Z,83.7
2023-01-11T12:51:55.440Z,83.8
2023-01-11T12:52:55.438Z,83.6
2023-01-11T12:53:55.452Z,83.9
2023-01-11T12:54:55.454Z,83.8
2023-01-11T12:55:55.493Z,83.9
2023-01-11T12:56:55.476Z,84.0
2023-01-11T12:57:55.472Z,84.0
2023-01-11T12:58:55.483Z,84.2
2023-01-11T12:59:55.545Z,84.3
2023-01-11T13:00:55.742Z,84.1
2023-01-11T13:01:55.507Z,84.3
2023-01-11T13:02:55.721Z,84.3
2023-01-11T13:03:55.533Z,84.5
2023-01-11T13:04:55.542Z,84.6
2023-01-11T13:05:55.647Z,84.8
2023-01-11T13:06:55.533Z,84.8
2023-01-11T13:07:55.530Z,84.8
2023-01-11T13:08:55.564Z,84.8
2023-01-11T13:09:55.544Z,84.6
2023-01-11T13:10:55.563Z,84.8
2023-01-11T13:11:55.570Z,84.9
2023-01-11T13:12:55.565Z,84.8
2023-01-11T13:13:55.583Z,84.3
2023-01-11T13:14:55.597Z,84.4
2023-01-11T13:15:55.621Z,84.5
2023-01-11T13:16:55.864Z,84.5
2023-01-11T13:17:55.701Z,83.7
2023-01-11T13:18:55.623Z,84.0
2023-01-11T13:19:55.614Z,84.2
2023-01-11T13:21:07.111Z,84.3
2023-01-11T13:21:55.637Z,84.3
2023-01-11T13:22:55.636Z,84.3
2023-01-11T13:23:55.647Z,84.3
2023-01-11T13:24:55.661Z,84.2
2023-01-11T13:25:55.659Z,84.3
2023-01-11T13:26:55.722Z,84.0
2023-01-11T13:27:55.709Z,84.0
2023-01-11T13:28:55.678Z,83.5
2023-01-11T13:29:55.683Z,83.5
2023-01-11T13:30:55.870Z,83.7
2023-01-11T13:31:55.702Z,83.6
2023-01-11T13:32:55.698Z,83.4
2023-01-11T13:33:55.725Z,83.3
2023-01-11T13:34:55.725Z,83.0
2023-01-11T13:35:55.743Z,83.3
2023-01-11T13:36:55.738Z,83.4
2023-01-11T13:37:55.747Z,83.5
2023-01-11T13:38:55.784Z,82.7
2023-01-11T13:39:55.755Z,82.1
2023-01-11T13:40:55.761Z,82.3
2023-01-11T13:41:55.779Z,82.2
2023-01-11T13:42:55.770Z,82.6
2023-01-11T13:43:55.789Z,82.7